Time;durP1;ratioP1;P1;durP2;ratioP2;P2;SDS_P1;SDS_P2;PMS_P1;PMS_P2;Temp;Humidity;BMP_temperature;BMP_pressure;BME280_temperature;BME280_humidity;BME280_pressure;Samples;Min_cycle;Max_cycle;Signal;HPM_P1;HPM_P2
2023/04/09 00:02:14;;;;;;;44.70;26.95;;;6.80;99.90;;;;;;5012814;28;20030;-82
2023/04/09 00:04:39;;;;;;;38.28;24.67;;;6.70;99.90;;;;;;5017258;28;20056;-83
2023/04/09 00:07:05;;;;;;;47.72;27.75;;;6.80;99.90;;;;;;5006577;28;20041;-82
2023/04/09 00:09:31;;;;;;;45.83;27.45;;;6.80;99.90;;;;;;5025498;28;20037;-81
2023/04/09 00:11:57;;;;;;;52.53;28.23;;;6.70;99.90;;;;;;5012475;28;20049;-80
2023/04/09 00:14:22;;;;;;;48.05;27.65;;;6.50;99.90;;;;;;5010770;28;20377;-81
2023/04/09 00:16:48;;;;;;;45.42;27.45;;;6.40;99.90;;;;;;5006682;28;20086;-81
2023/04/09 00:19:14;;;;;;;44.33;26.80;;;6.30;99.90;;;;;;5007898;28;20034;-81
2023/04/09 00:21:40;;;;;;;48.13;27.00;;;6.30;99.90;;;;;;5009250;28;20034;-82
2023/04/09 00:24:05;;;;;;;52.85;27.75;;;6.30;99.90;;;;;;5027783;28;20044;-81
2023/04/09 00:26:31;;;;;;;47.03;27.27;;;6.30;99.90;;;;;;5005389;28;20029;-81
2023/04/09 00:28:56;;;;;;;48.70;27.17;;;6.20;99.90;;;;;;5024297;28;20064;-81
2023/04/09 00:31:22;;;;;;;46.35;27.05;;;6.10;99.90;;;;;;5022749;28;20037;-81
2023/04/09 00:33:48;;;;;;;39.95;23.30;;;6.20;99.90;;;;;;5029683;28;20045;-80
2023/04/09 00:36:13;;;;;;;39.08;22.98;;;6.20;99.90;;;;;;5003913;28;20030;-82
2023/04/09 00:38:39;;;;;;;45.63;26.42;;;6.20;99.90;;;;;;5010118;28;20528;-81
2023/04/09 00:41:05;;;;;;;48.15;27.17;;;6.20;99.90;;;;;;5025523;28;20021;-81
2023/04/09 00:43:30;;;;;;;43.55;25.30;;;6.10;99.90;;;;;;5023835;28;20048;-81
2023/04/09 00:45:57;;;;;;;28.98;18.05;;;6.10;99.90;;;;;;5012377;28;20067;-81
2023/04/09 00:48:22;;;;;;;49.33;27.83;;;6.00;99.90;;;;;;5021833;28;20600;-80
2023/04/09 00:50:48;;;;;;;42.13;21.90;;;6.00;99.90;;;;;;5026789;28;20057;-80
2023/04/09 00:53:13;;;;;;;56.25;29.92;;;6.00;99.90;;;;;;5025532;28;20048;-80
2023/04/09 00:55:40;;;;;;;55.33;29.55;;;5.90;99.90;;;;;;5011384;28;20034;-81
2023/04/09 00:58:06;;;;;;;51.75;29.63;;;5.90;99.90;;;;;;5007826;28;20064;-80
2023/04/09 01:00:31;;;;;;;50.42;29.65;;;5.70;99.90;;;;;;5018801;28;20029;-80
2023/04/09 01:02:57;;;;;;;52.45;28.67;;;5.60;99.90;;;;;;5015783;28;20048;-81
2023/04/09 01:05:25;;;;;;;54.20;29.00;;;5.50;99.90;;;;;;5005556;28;20112;-81
2023/04/09 01:08:07;;;;;;;51.53;27.75;;;5.50;99.90;;;;;;5007606;28;20045;-81
2023/04/09 01:10:37;;;;;;;54.10;29.15;;;5.40;99.90;;;;;;5018662;28;20120;-80
2023/04/09 01:13:15;;;;;;;49.40;29.00;;;5.40;99.90;;;;;;5004775;28;20467;-81
2023/04/09 01:15:55;;;;;;;51.45;28.58;;;5.30;99.90;;;;;;5024013;28;20062;-81
2023/04/09 01:18:43;;;;;;;52.28;29.92;;;5.30;99.90;;;;;;5008048;28;20041;-81
2023/04/09 01:21:13;;;;;;;56.72;31.45;;;5.10;99.90;;;;;;5035184;28;20561;-80
2023/04/09 01:24:14;;;;;;;56.83;30.73;;;5.20;99.90;;;;;;5004279;28;20100;-81
2023/04/09 01:26:58;;;;;;;56.42;31.02;;;5.10;99.90;;;;;;4974207;28;20448;-80
2023/04/09 01:29:24;;;;;;;46.70;25.63;;;5.10;99.90;;;;;;5028216;28;20029;-81
2023/04/09 01:31:50;;;;;;;42.60;23.75;;;5.20;99.90;;;;;;5004504;28;20044;-80
2023/04/09 01:34:15;;;;;;;54.40;29.77;;;5.20;99.90;;;;;;5012393;28;20041;-80
2023/04/09 01:36:41;;;;;;;58.50;34.58;;;5.20;99.90;;;;;;5012895;28;20054;-81
2023/04/09 01:39:07;;;;;;;61.55;35.72;;;5.00;99.90;;;;;;5006371;28;20036;-80
2023/04/09 01:41:33;;;;;;;63.85;35.25;;;5.00;99.90;;;;;;5024126;28;20044;-80
2023/04/09 01:44:00;;;;;;;60.35;34.47;;;4.80;99.90;;;;;;5008286;28;20497;-81
2023/04/09 01:46:26;;;;;;;54.97;30.83;;;4.70;99.90;;;;;;4993342;28;20029;-81
2023/04/09 01:48:51;;;;;;;54.08;31.45;;;4.70;99.90;;;;;;5029232;28;20595;-81
2023/04/09 01:51:17;;;;;;;65.72;35.38;;;4.80;99.90;;;;;;5009306;28;20034;-81
2023/04/09 01:53:42;;;;;;;56.70;31.25;;;4.80;99.90;;;;;;5022515;28;20044;-80
2023/04/09 01:56:08;;;;;;;54.00;31.92;;;4.70;99.90;;;;;;5018732;28;20073;-81
2023/04/09 01:58:34;;;;;;;62.28;33.55;;;4.50;99.90;;;;;;5011931;28;20029;-81
2023/04/09 02:01:11;;;;;;;55.53;31.38;;;4.40;99.90;;;;;;4994062;28;20366;-80
2023/04/09 02:03:44;;;;;;;57.13;30.35;;;4.50;99.90;;;;;;5024467;28;20033;-81
2023/04/09 02:06:22;;;;;;;59.70;30.95;;;4.40;99.90;;;;;;5027236;28;20044;-81
2023/04/09 02:08:47;;;;;;;59.03;31.38;;;4.40;99.90;;;;;;5024989;28;20030;-81
2023/04/09 02:11:13;;;;;;;52.20;30.90;;;4.40;99.90;;;;;;5003181;28;20115;-80
2023/04/09 02:13:40;;;;;;;57.05;31.45;;;4.30;99.90;;;;;;5006929;28;20045;-81
2023/04/09 02:16:06;;;;;;;56.53;32.42;;;4.30;99.90;;;;;;5009769;28;20038;-81
2023/04/09 02:18:31;;;;;;;60.90;32.70;;;4.30;99.90;;;;;;5019818;28;20117;-80
2023/04/09 02:20:57;;;;;;;61.45;30.85;;;4.20;99.90;;;;;;5032113;28;20119;-81
2023/04/09 02:23:23;;;;;;;62.42;31.98;;;4.10;99.90;;;;;;5008933;28;20068;-80
2023/04/09 02:25:49;;;;;;;56.88;32.47;;;4.10;99.90;;;;;;5021948;28;20067;-80
2023/04/09 02:28:15;;;;;;;55.78;32.38;;;4.00;99.90;;;;;;5022551;28;20271;-80
2023/04/09 02:30:41;;;;;;;54.60;32.42;;;4.10;99.90;;;;;;5008186;28;20501;-80
2023/04/09 02:33:06;;;;;;;60.92;32.80;;;3.90;99.90;;;;;;5026431;28;20038;-80
2023/04/09 02:35:32;;;;;;;57.13;32.88;;;3.90;99.90;;;;;;5005123;28;20037;-80
2023/04/09 02:37:58;;;;;;;63.67;33.15;;;3.80;99.90;;;;;;5020746;28;20065;-80
2023/04/09 02:40:23;;;;;;;56.13;32.78;;;3.80;99.90;;;;;;5003608;28;20029;-81
2023/04/09 02:42:50;;;;;;;60.00;34.30;;;3.80;99.90;;;;;;5021237;28;20034;-80
2023/04/09 02:45:16;;;;;;;56.53;32.78;;;3.70;99.90;;;;;;5017967;28;20120;-82
2023/04/09 02:47:41;;;;;;;54.42;32.05;;;3.60;99.90;;;;;;5015739;28;20177;-82
2023/04/09 02:50:07;;;;;;;64.97;34.35;;;3.70;99.90;;;;;;5020416;28;20025;-81
2023/04/09 02:52:33;;;;;;;62.03;33.20;;;3.80;99.90;;;;;;5020062;28;20074;-81
2023/04/09 02:54:58;;;;;;;60.50;32.65;;;3.80;99.90;;;;;;5009800;28;20142;-82
2023/04/09 02:57:24;;;;;;;58.05;32.08;;;3.80;99.90;;;;;;4992153;28;20022;-81
2023/04/09 02:59:49;;;;;;;59.72;32.58;;;3.80;99.90;;;;;;5032066;28;20145;-82
2023/04/09 03:02:15;;;;;;;59.15;32.60;;;3.70;99.90;;;;;;5008313;28;20437;-82
2023/04/09 03:04:40;;;;;;;67.60;32.88;;;3.70;99.90;;;;;;5009435;28;20148;-82
2023/04/09 03:07:06;;;;;;;65.32;31.23;;;3.80;99.90;;;;;;4996283;28;20030;-82
2023/04/09 03:09:32;;;;;;;66.93;30.95;;;3.70;99.90;;;;;;5018334;28;20030;-82
2023/04/09 03:11:57;;;;;;;45.92;25.83;;;3.70;99.90;;;;;;5021056;28;20033;-81
2023/04/09 03:14:23;;;;;;;100.47;31.20;;;3.70;99.90;;;;;;5004240;28;20095;-82
2023/04/09 03:16:49;;;;;;;95.50;32.90;;;3.70;99.90;;;;;;5023543;28;20041;-82
2023/04/09 03:19:14;;;;;;;132.48;33.75;;;3.50;99.90;;;;;;5000787;28;20497;-82
2023/04/09 03:21:40;;;;;;;128.75;35.40;;;3.50;99.90;;;;;;5003246;28;20038;-81
2023/04/09 03:24:06;;;;;;;262.73;38.88;;;3.50;99.90;;;;;;5001557;28;20046;-81
2023/04/09 03:26:35;;;;;;;157.52;36.08;;;3.50;99.90;;;;;;5005503;28;20064;-81
2023/04/09 03:29:04;;;;;;;222.52;37.38;;;3.40;99.90;;;;;;5019945;28;20030;-82
2023/04/09 03:31:30;;;;;;;258.85;38.33;;;3.40;99.90;;;;;;5006858;28;20042;-82
2023/04/09 03:33:56;;;;;;;225.50;36.83;;;3.20;99.90;;;;;;5007071;28;20032;-81
2023/04/09 03:36:21;;;;;;;298.73;38.85;;;3.30;99.90;;;;;;5018791;28;20536;-82
2023/04/09 03:38:47;;;;;;;343.55;40.38;;;3.40;99.90;;;;;;5020341;28;20037;-82
2023/04/09 03:41:12;;;;;;;332.60;39.60;;;3.40;99.90;;;;;;5013929;28;20045;-82
2023/04/09 03:43:38;;;;;;;347.48;39.35;;;3.40;99.90;;;;;;5001652;28;20038;-82
2023/04/09 03:46:16;;;;;;;275.10;37.00;;;3.40;99.90;;;;;;5003758;28;20030;-82
2023/04/09 03:48:41;;;;;;;299.02;37.22;;;3.40;99.90;;;;;;5005412;28;20030;-82
2023/04/09 03:51:13;;;;;;;284.75;37.05;;;3.30;99.90;;;;;;5001285;28;20041;-81
2023/04/09 03:53:39;;;;;;;149.98;30.42;;;3.30;99.90;;;;;;4995346;28;20037;-82
2023/04/09 03:56:05;;;;;;;271.25;37.00;;;3.30;99.90;;;;;;5000617;28;20040;-81
2023/04/09 03:58:31;;;;;;;237.85;35.10;;;3.40;99.90;;;;;;5019090;28;20037;-80
2023/04/09 04:00:56;;;;;;;356.52;36.22;;;3.30;99.90;;;;;;5006943;28;20351;-81
2023/04/09 04:03:22;;;;;;;44.20;21.52;;;3.20;99.90;;;;;;5006028;28;20037;-81
2023/04/09 04:05:47;;;;;;;279.30;36.50;;;3.20;99.90;;;;;;5020082;28;20026;-81
2023/04/09 04:08:13;;;;;;;256.73;32.58;;;3.30;99.90;;;;;;5015332;28;20482;-80
2023/04/09 04:10:39;;;;;;;220.57;30.55;;;3.20;99.90;;;;;;5003606;28;20044;-81
2023/04/09 04:13:07;;;;;;;281.90;33.15;;;3.20;99.90;;;;;;4998244;28;20117;-80
2023/04/09 04:15:40;;;;;;;220.63;29.20;;;3.20;99.90;;;;;;5018968;28;20037;-80
2023/04/09 04:18:05;;;;;;;238.02;31.17;;;3.20;99.90;;;;;;5021402;28;20143;-81
2023/04/09 04:20:37;;;;;;;171.02;29.17;;;3.10;99.90;;;;;;5024375;28;20469;-79
2023/04/09 04:23:03;;;;;;;139.50;26.20;;;3.20;99.90;;;;;;5000855;28;20036;-80
2023/04/09 04:25:28;;;;;;;207.18;28.80;;;3.20;99.90;;;;;;5007270;28;20091;-82
2023/04/09 04:27:54;;;;;;;209.65;29.65;;;3.20;99.90;;;;;;5001124;28;20037;-82
2023/04/09 04:30:20;;;;;;;140.77;27.08;;;3.10;99.90;;;;;;5029107;28;20057;-81
2023/04/09 04:32:46;;;;;;;170.90;29.77;;;3.10;99.90;;;;;;5001360;28;20030;-81
2023/04/09 04:35:12;;;;;;;196.85;31.75;;;3.10;99.90;;;;;;5017616;28;20397;-81
2023/04/09 04:37:39;;;;;;;176.18;29.15;;;3.00;99.90;;;;;;5007849;28;20034;-83
2023/04/09 04:40:05;;;;;;;209.60;31.83;;;3.00;99.90;;;;;;5015938;28;20033;-82
2023/04/09 04:42:31;;;;;;;268.13;30.48;;;3.00;99.90;;;;;;5025066;28;20033;-82
2023/04/09 04:44:56;;;;;;;250.60;30.73;;;3.00;99.90;;;;;;5016905;28;20045;-82
2023/04/09 04:47:22;;;;;;;264.40;31.85;;;2.90;99.90;;;;;;5005558;28;20033;-83
2023/04/09 04:49:48;;;;;;;181.30;26.25;;;2.90;99.90;;;;;;5016442;28;20030;-82
2023/04/09 04:52:13;;;;;;;233.82;30.17;;;2.90;99.90;;;;;;5000542;28;20490;-82
2023/04/09 04:54:39;;;;;;;342.50;33.65;;;2.90;99.90;;;;;;5015632;28;20075;-82
2023/04/09 04:57:04;;;;;;;139.60;23.00;;;2.80;99.90;;;;;;5004911;28;20113;-82
2023/04/09 04:59:30;;;;;;;245.27;29.83;;;2.80;99.90;;;;;;5008526;28;20030;-81
2023/04/09 05:01:56;;;;;;;349.08;30.80;;;2.90;99.90;;;;;;5018299;28;20052;-82
2023/04/09 05:04:21;;;;;;;295.23;30.83;;;2.80;99.90;;;;;;5010140;28;20042;-82
2023/04/09 05:06:47;;;;;;;281.15;30.85;;;2.80;99.90;;;;;;5008318;28;20508;-83
2023/04/09 05:09:13;;;;;;;177.95;28.17;;;2.90;99.90;;;;;;5004651;28;20044;-80
2023/04/09 05:11:38;;;;;;;273.33;28.55;;;2.70;99.90;;;;;;5005321;28;20041;-79
2023/04/09 05:14:05;;;;;;;373.98;32.20;;;2.80;99.90;;;;;;5010761;28;20476;-80
2023/04/09 05:16:30;;;;;;;299.00;31.42;;;2.70;99.90;;;;;;5009764;28;20112;-80
2023/04/09 05:18:56;;;;;;;171.07;22.85;;;2.70;99.90;;;;;;5026604;28;20568;-81
2023/04/09 05:21:21;;;;;;;290.15;30.95;;;2.70;99.90;;;;;;5018474;28;20095;-81
2023/04/09 05:23:47;;;;;;;221.57;27.23;;;2.70;99.90;;;;;;5015970;28;20809;-81
2023/04/09 05:26:12;;;;;;;276.92;27.30;;;2.70;99.90;;;;;;5004939;28;20034;-81
2023/04/09 05:28:38;;;;;;;320.60;30.70;;;2.80;99.90;;;;;;5008776;28;20029;-81
2023/04/09 05:31:04;;;;;;;287.25;29.05;;;2.70;99.90;;;;;;5007508;28;20502;-80
2023/04/09 05:33:34;;;;;;;370.65;31.10;;;2.70;99.90;;;;;;5025649;28;20037;-80
2023/04/09 05:35:59;;;;;;;324.40;28.75;;;2.80;99.90;;;;;;5019367;28;20569;-80
2023/04/09 05:38:25;;;;;;;495.20;36.15;;;2.80;99.90;;;;;;5010366;28;20108;-80
2023/04/09 05:40:51;;;;;;;313.23;29.48;;;2.80;99.90;;;;;;5006639;28;20041;-80
2023/04/09 05:43:16;;;;;;;349.63;30.85;;;2.80;99.90;;;;;;5024985;28;20060;-80
2023/04/09 05:45:42;;;;;;;371.00;30.90;;;2.90;99.90;;;;;;5008517;28;20397;-80
2023/04/09 05:48:07;;;;;;;222.55;27.10;;;2.90;99.90;;;;;;5019215;28;20026;-80
2023/04/09 05:50:33;;;;;;;306.20;30.20;;;2.90;99.90;;;;;;5003500;28;20386;-81
2023/04/09 05:52:58;;;;;;;226.25;25.23;;;3.00;99.90;;;;;;5017239;28;20109;-80
2023/04/09 05:55:24;;;;;;;305.63;32.47;;;3.00;99.90;;;;;;5008180;28;20025;-80
2023/04/09 05:57:51;;;;;;;404.05;36.10;;;3.10;99.90;;;;;;5004288;28;20363;-80
2023/04/09 06:00:17;;;;;;;234.20;29.58;;;3.10;99.90;;;;;;5002289;28;20274;-81
2023/04/09 06:02:44;;;;;;;238.85;28.83;;;3.10;99.90;;;;;;5018519;28;20091;-80
2023/04/09 06:05:10;;;;;;;262.52;28.63;;;3.20;99.90;;;;;;5002237;28;20033;-79
2023/04/09 06:07:35;;;;;;;262.42;29.70;;;3.20;99.90;;;;;;5002598;28;20088;-80
2023/04/09 06:10:01;;;;;;;308.90;30.92;;;3.30;99.90;;;;;;5008369;28;20053;-79
2023/04/09 06:12:27;;;;;;;161.18;27.25;;;3.30;99.90;;;;;;5014582;28;20037;-80
2023/04/09 06:14:52;;;;;;;283.60;31.17;;;3.40;99.90;;;;;;5004185;28;20073;-81
2023/04/09 06:17:18;;;;;;;106.40;26.92;;;3.50;99.90;;;;;;5003487;28;20034;-80
2023/04/09 06:19:44;;;;;;;121.10;26.35;;;3.50;99.90;;;;;;5025123;28;20417;-80
2023/04/09 06:22:09;;;;;;;168.55;28.15;;;3.60;99.90;;;;;;5006922;28;20034;-80
2023/04/09 06:24:35;;;;;;;124.35;29.27;;;3.70;99.90;;;;;;5006659;28;20409;-80
2023/04/09 06:27:01;;;;;;;63.95;25.50;;;3.80;99.90;;;;;;5023430;28;20025;-80
2023/04/09 06:29:26;;;;;;;56.22;26.45;;;3.90;99.90;;;;;;5024035;28;20033;-80
2023/04/09 06:31:52;;;;;;;59.78;26.65;;;3.90;99.90;;;;;;5004505;28;20967;-79
2023/04/09 06:34:18;;;;;;;260.55;34.42;;;4.00;99.90;;;;;;5005093;28;20041;-80
2023/04/09 06:36:44;;;;;;;68.47;28.38;;;4.10;99.90;;;;;;5004055;28;20045;-79
2023/04/09 06:39:09;;;;;;;49.47;23.95;;;4.10;99.90;;;;;;5021422;28;20026;-79
2023/04/09 06:41:35;;;;;;;52.60;26.98;;;4.10;99.90;;;;;;5017537;28;20037;-80
2023/04/09 06:44:00;;;;;;;41.55;25.50;;;4.20;99.90;;;;;;5006770;28;20040;-80
2023/04/09 06:46:26;;;;;;;47.90;25.58;;;4.30;99.90;;;;;;5010247;28;20029;-80
2023/04/09 06:48:52;;;;;;;34.55;22.02;;;4.40;99.90;;;;;;5003993;28;20034;-80
2023/04/09 06:51:18;;;;;;;42.15;26.63;;;4.50;99.90;;;;;;5005477;28;20042;-80
2023/04/09 06:53:43;;;;;;;45.17;28.60;;;4.60;99.90;;;;;;5004020;28;20516;-80
2023/04/09 06:56:09;;;;;;;43.40;27.38;;;4.70;99.90;;;;;;5003864;28;20101;-80
2023/04/09 06:58:35;;;;;;;43.50;27.83;;;4.80;99.90;;;;;;5002510;28;20044;-81
2023/04/09 07:01:00;;;;;;;45.97;27.38;;;4.80;99.90;;;;;;5008483;28;20034;-80
2023/04/09 07:03:26;;;;;;;40.78;26.60;;;4.90;99.90;;;;;;5004434;28;20118;-80
2023/04/09 07:05:53;;;;;;;40.50;27.05;;;4.90;99.90;;;;;;5017726;28;20041;-80
2023/04/09 07:08:21;;;;;;;46.20;27.90;;;4.90;99.90;;;;;;5002985;28;20445;-80
2023/04/09 07:10:47;;;;;;;49.53;28.52;;;5.10;99.90;;;;;;5019680;28;20054;-79
2023/04/09 07:13:12;;;;;;;49.00;29.67;;;5.20;99.90;;;;;;5015872;28;20041;-80
2023/04/09 07:15:38;;;;;;;46.63;28.50;;;5.30;99.90;;;;;;5007872;28;20026;-80
2023/04/09 07:18:04;;;;;;;47.10;29.10;;;5.40;99.90;;;;;;5000483;28;20039;-80
2023/04/09 07:20:30;;;;;;;40.63;24.77;;;5.50;99.90;;;;;;5007528;28;20150;-79
2023/04/09 07:22:55;;;;;;;48.58;29.60;;;5.60;99.90;;;;;;5019717;28;20041;-79
2023/04/09 07:25:21;;;;;;;47.33;27.00;;;5.70;99.90;;;;;;5015314;28;20033;-80
2023/04/09 07:27:48;;;;;;;43.33;26.00;;;5.90;99.90;;;;;;5025542;28;20108;-80
2023/04/09 07:30:14;;;;;;;46.50;29.15;;;6.10;99.90;;;;;;5003796;28;20057;-80
2023/04/09 07:32:39;;;;;;;44.00;25.90;;;6.10;99.90;;;;;;5006451;28;20099;-81
2023/04/09 07:35:06;;;;;;;48.05;27.85;;;6.40;99.90;;;;;;5000790;28;20516;-80
2023/04/09 07:37:31;;;;;;;46.85;27.73;;;6.40;99.90;;;;;;5008162;28;20111;-80
2023/04/09 07:39:57;;;;;;;44.47;26.30;;;6.80;99.90;;;;;;5004901;28;20516;-81
2023/04/09 07:42:23;;;;;;;33.83;20.98;;;7.00;99.90;;;;;;5021162;28;20089;-81
2023/04/09 07:44:48;;;;;;;44.50;26.00;;;7.00;99.90;;;;;;5016845;28;20026;-81
2023/04/09 07:47:14;;;;;;;43.55;24.75;;;7.30;99.90;;;;;;4999335;28;20092;-80
2023/04/09 07:49:40;;;;;;;40.58;23.88;;;7.50;99.90;;;;;;5007898;28;20029;-81
2023/04/09 07:52:05;;;;;;;42.42;26.77;;;7.60;99.90;;;;;;5005046;28;20188;-80
2023/04/09 07:54:31;;;;;;;43.28;24.95;;;7.60;99.90;;;;;;5008260;28;20060;-81
2023/04/09 07:56:57;;;;;;;47.45;26.75;;;7.70;99.90;;;;;;5016229;28;20026;-81
2023/04/09 07:59:23;;;;;;;31.27;19.38;;;7.90;99.90;;;;;;5018820;28;20187;-81
2023/04/09 08:01:49;;;;;;;37.58;22.85;;;8.10;99.90;;;;;;5020874;28;20037;-81
2023/04/09 08:04:15;;;;;;;38.75;22.48;;;8.30;99.90;;;;;;5001964;28;20120;-81
2023/04/09 08:06:40;;;;;;;38.47;23.90;;;8.20;99.90;;;;;;5022108;28;20029;-81
2023/04/09 08:09:06;;;;;;;38.47;23.35;;;8.70;99.90;;;;;;5003605;28;20068;-79
2023/04/09 08:11:32;;;;;;;37.35;21.13;;;8.90;99.90;;;;;;5022588;28;20054;-80
2023/04/09 08:14:00;;;;;;;29.58;19.15;;;8.60;99.90;;;;;;5005538;28;20030;-81
2023/04/09 08:16:25;;;;;;;34.35;19.17;;;8.80;99.90;;;;;;5008029;28;20416;-79
2023/04/09 08:18:51;;;;;;;19.17;12.95;;;9.10;99.90;;;;;;5024785;28;20030;-80
2023/04/09 08:21:43;;;;;;;29.58;17.92;;;9.40;99.90;;;;;;5022765;28;20042;-79
2023/04/09 08:24:10;;;;;;;22.17;14.80;;;9.60;99.90;;;;;;5017141;28;20044;-80
2023/04/09 08:26:39;;;;;;;24.55;15.25;;;9.80;99.90;;;;;;5005089;28;20465;-80
2023/04/09 08:29:04;;;;;;;23.05;15.32;;;10.00;99.90;;;;;;4996578;28;20481;-80
2023/04/09 08:31:30;;;;;;;25.05;14.70;;;9.70;99.90;;;;;;5010542;28;20124;-80
2023/04/09 08:33:56;;;;;;;19.45;13.10;;;9.80;99.90;;;;;;5006609;28;20036;-79
2023/04/09 08:36:22;;;;;;;20.73;13.25;;;9.90;99.90;;;;;;5002035;28;20155;-79
2023/04/09 08:38:48;;;;;;;16.38;10.80;;;10.60;99.90;;;;;;5008573;28;20034;-81
2023/04/09 08:41:20;;;;;;;14.93;10.38;;;10.50;99.90;;;;;;5009143;28;20026;-81
2023/04/09 08:43:47;;;;;;;18.35;11.02;;;10.90;99.90;;;;;;5005423;28;20045;-80
2023/04/09 08:46:15;;;;;;;21.02;13.32;;;11.00;99.90;;;;;;5002673;28;20025;-80
2023/04/09 08:48:42;;;;;;;15.27;9.15;;;10.90;99.90;;;;;;5021520;28;20028;-80
2023/04/09 08:51:07;;;;;;;12.13;7.63;;;11.50;99.90;;;;;;5022053;28;20041;-79
2023/04/09 08:53:34;;;;;;;11.20;7.78;;;12.30;99.90;;;;;;5025910;28;20026;-80
2023/04/09 08:56:00;;;;;;;10.82;7.97;;;13.10;99.90;;;;;;5006443;28;20513;-80
2023/04/09 08:58:25;;;;;;;11.18;7.82;;;13.60;99.90;;;;;;5025327;28;20033;-80
2023/04/09 09:00:51;;;;;;;10.75;7.03;;;13.50;99.90;;;;;;5005822;28;20026;-80
2023/04/09 09:03:16;;;;;;;12.10;7.95;;;13.90;99.90;;;;;;5018390;28;20030;-80
2023/04/09 09:05:43;;;;;;;10.73;7.53;;;14.50;99.90;;;;;;5007315;28;20057;-80
2023/04/09 09:08:10;;;;;;;11.38;7.85;;;14.00;99.90;;;;;;5015162;28;20077;-80
2023/04/09 09:10:40;;;;;;;8.93;5.88;;;13.90;99.90;;;;;;5005952;28;20034;-81
2023/04/09 09:13:21;;;;;;;10.57;7.20;;;14.30;99.90;;;;;;5025676;28;20026;-82
2023/04/09 09:15:49;;;;;;;10.68;7.32;;;13.80;99.90;;;;;;5021163;28;20022;-80
2023/04/09 09:18:15;;;;;;;10.68;5.93;;;14.10;99.90;;;;;;5008507;28;20069;-80
2023/04/09 09:20:41;;;;;;;9.43;6.03;;;14.70;99.90;;;;;;5008486;28;20163;-81
2023/04/09 09:23:07;;;;;;;7.53;5.15;;;14.80;99.90;;;;;;5005435;28;20109;-80
2023/04/09 09:25:40;;;;;;;8.88;5.90;;;15.10;99.90;;;;;;5006437;28;20037;-80
2023/04/09 09:28:10;;;;;;;9.32;6.53;;;15.10;99.90;;;;;;5023673;28;20045;-80
2023/04/09 09:30:36;;;;;;;8.43;5.75;;;15.00;99.90;;;;;;5024370;28;20038;-80
2023/04/09 09:33:11;;;;;;;8.60;6.35;;;15.40;99.90;;;;;;4997102;28;20438;-81
2023/04/09 09:35:56;;;;;;;7.78;5.15;;;15.20;99.90;;;;;;5001238;28;20033;-81
2023/04/09 09:38:22;;;;;;;6.95;5.40;;;15.70;99.90;;;;;;4998680;28;20041;-81
2023/04/09 09:40:48;;;;;;;10.32;6.90;;;16.30;99.90;;;;;;5006294;28;20030;-81
2023/04/09 09:43:14;;;;;;;8.73;6.30;;;15.80;99.90;;;;;;5022368;28;20034;-80
2023/04/09 09:45:40;;;;;;;5.97;4.38;;;15.70;99.90;;;;;;5005976;28;20421;-81
2023/04/09 09:48:06;;;;;;;8.10;6.07;;;15.80;99.90;;;;;;5019506;28;20036;-81
2023/04/09 09:50:32;;;;;;;8.45;6.43;;;16.10;99.90;;;;;;5007662;28;20075;-81
2023/04/09 09:53:19;;;;;;;11.02;6.38;;;16.40;99.90;;;;;;5013906;28;20057;-80
2023/04/09 09:55:47;;;;;;;7.93;5.60;;;16.70;97.00;;;;;;5018792;28;20077;-81
2023/04/09 09:58:18;;;;;;;9.35;5.38;;;16.50;98.10;;;;;;5005803;28;20482;-81
2023/04/09 10:00:47;;;;;;;8.07;5.90;;;16.40;98.00;;;;;;5019986;28;20486;-81
2023/04/09 10:03:19;;;;;;;8.80;5.70;;;15.80;99.90;;;;;;5012754;28;20468;-81
2023/04/09 10:05:45;;;;;;;9.77;6.85;;;16.10;99.90;;;;;;5009176;28;20042;-81
2023/04/09 10:08:11;;;;;;;10.63;7.03;;;16.20;99.90;;;;;;5021496;28;20049;-81
2023/04/09 10:10:38;;;;;;;9.32;6.07;;;16.00;99.90;;;;;;5010407;28;20042;-80
2023/04/09 10:13:05;;;;;;;10.60;6.32;;;16.50;99.60;;;;;;4999966;28;20056;-80
2023/04/09 10:15:30;;;;;;;8.98;5.90;;;16.50;96.90;;;;;;4996138;28;20034;-80
2023/04/09 10:17:56;;;;;;;7.18;5.32;;;16.20;99.90;;;;;;5021509;28;20052;-81
2023/04/09 10:20:25;;;;;;;6.93;4.88;;;16.70;98.50;;;;;;5026366;28;20030;-80
2023/04/09 10:22:51;;;;;;;9.30;5.05;;;16.70;99.90;;;;;;5023746;28;20026;-80
2023/04/09 10:25:16;;;;;;;7.88;5.55;;;17.20;98.20;;;;;;5011215;28;20564;-80
2023/04/09 10:27:47;;;;;;;7.57;6.35;;;17.30;96.90;;;;;;5005732;28;20353;-80
2023/04/09 10:30:34;;;;;;;7.72;6.47;;;17.40;98.50;;;;;;5007417;28;20522;-80
2023/04/09 10:33:13;;;;;;;8.13;5.72;;;16.60;99.90;;;;;;5011471;28;20041;-80
2023/04/09 10:35:39;;;;;;;7.68;5.57;;;16.50;99.90;;;;;;5029656;28;20041;-80
2023/04/09 10:38:08;;;;;;;8.10;4.95;;;16.90;99.90;;;;;;5026178;28;20022;-80
2023/04/09 10:40:39;;;;;;;7.50;5.95;;;17.70;98.60;;;;;;5002133;28;20029;-81
2023/04/09 10:43:05;;;;;;;6.00;5.25;;;17.60;96.80;;;;;;5011336;28;20029;-81
2023/04/09 10:45:43;;;;;;;7.15;5.25;;;17.70;99.90;;;;;;5012294;28;20076;-81
2023/04/09 10:48:12;;;;;;;6.05;4.68;;;17.60;99.90;;;;;;5010523;28;20025;-79
2023/04/09 10:50:38;;;;;;;7.32;4.90;;;18.20;98.70;;;;;;5027509;28;20021;-79
2023/04/09 10:53:05;;;;;;;7.57;5.70;;;18.30;96.20;;;;;;5010195;28;20148;-79
2023/04/09 10:55:35;;;;;;;7.13;5.90;;;18.80;93.50;;;;;;5028227;28;20131;-80
2023/04/09 10:58:11;;;;;;;6.30;4.82;;;18.70;91.20;;;;;;5004631;28;20034;-80
2023/04/09 11:00:38;;;;;;;7.18;5.82;;;18.40;92.90;;;;;;5025938;28;20033;-80
2023/04/09 11:03:32;;;;;;;9.85;5.85;;;18.20;99.90;;;;;;5025616;28;20429;-80
2023/04/09 11:06:00;;;;;;;7.10;5.13;;;18.60;94.20;;;;;;5012478;28;20238;-80
2023/04/09 11:08:32;;;;;;;5.97;4.45;;;19.00;94.80;;;;;;5022219;28;20056;-80
2023/04/09 11:10:59;;;;;;;5.32;4.80;;;19.50;91.00;;;;;;5006256;28;20037;-80
2023/04/09 11:13:25;;;;;;;7.55;4.35;;;19.60;93.50;;;;;;5021280;28;20029;-80
2023/04/09 11:15:51;;;;;;;8.07;5.80;;;20.10;92.80;;;;;;5009203;28;20022;-81
2023/04/09 11:18:20;;;;;;;7.50;4.70;;;19.80;91.90;;;;;;5009558;28;20674;-81
2023/04/09 11:20:46;;;;;;;6.18;4.72;;;20.30;94.20;;;;;;5011906;28;20052;-81
2023/04/09 11:23:12;;;;;;;7.03;5.40;;;20.20;94.10;;;;;;5006810;28;20478;-81
2023/04/09 11:25:38;;;;;;;7.07;5.80;;;20.60;85.20;;;;;;5008540;28;20049;-81
2023/04/09 11:28:03;;;;;;;7.82;6.13;;;20.60;80.10;;;;;;5011307;28;20037;-81
2023/04/09 11:30:30;;;;;;;7.20;5.47;;;20.30;88.60;;;;;;5011515;28;20026;-81
2023/04/09 11:32:55;;;;;;;5.82;5.05;;;20.00;89.10;;;;;;5012199;28;20025;-81
2023/04/09 11:35:21;;;;;;;6.03;4.85;;;19.80;95.20;;;;;;5025330;28;20029;-81
2023/04/09 11:37:47;;;;;;;6.97;5.28;;;19.90;95.70;;;;;;5004698;28;20516;-82
2023/04/09 11:40:23;;;;;;;9.27;5.47;;;19.90;99.90;;;;;;5025195;28;20022;-81
2023/04/09 11:42:50;;;;;;;7.88;5.55;;;19.90;99.90;;;;;;4997645;28;20033;-81
2023/04/09 11:45:16;;;;;;;6.85;5.35;;;19.80;98.40;;;;;;5005406;28;20414;-81
2023/04/09 11:47:42;;;;;;;7.15;5.32;;;20.20;91.80;;;;;;5021353;28;20030;-81
2023/04/09 11:50:09;;;;;;;6.32;5.03;;;20.30;90.10;;;;;;5016883;28;20144;-81
2023/04/09 11:52:34;;;;;;;6.03;4.85;;;20.50;82.90;;;;;;5012137;28;20524;-82
2023/04/09 11:55:02;;;;;;;7.93;6.70;;;20.70;81.00;;;;;;5009388;28;20029;-82
2023/04/09 11:57:46;;;;;;;6.85;5.82;;;21.10;78.00;;;;;;4326591;28;10000542;-82
2023/04/09 12:00:15;;;;;;;7.32;5.03;;;21.40;78.50;;;;;;5018304;28;20025;-82
2023/04/09 12:02:45;;;;;;;7.32;5.93;;;21.10;80.20;;;;;;5005279;28;20064;-82
2023/04/09 12:05:19;;;;;;;9.98;6.63;;;20.80;79.20;;;;;;5005615;28;20406;-81
2023/04/09 12:07:44;;;;;;;7.38;5.68;;;20.70;93.30;;;;;;5012655;28;20076;-82
2023/04/09 12:10:10;;;;;;;6.82;5.78;;;20.50;80.30;;;;;;5011293;28;20610;-81
2023/04/09 12:12:40;;;;;;;7.68;6.50;;;20.60;97.30;;;;;;5005459;28;20029;-81
2023/04/09 12:15:11;;;;;;;8.65;6.40;;;20.40;95.40;;;;;;4992124;28;20033;-82
2023/04/09 12:17:36;;;;;;;7.85;6.15;;;20.20;99.90;;;;;;5002891;28;20033;-80
2023/04/09 12:20:05;;;;;;;7.78;6.38;;;20.10;92.30;;;;;;4992751;28;20428;-79
2023/04/09 12:22:31;;;;;;;6.72;5.85;;;20.00;96.50;;;;;;5003972;28;20034;-80
2023/04/09 12:24:56;;;;;;;7.10;5.55;;;19.80;94.40;;;;;;5030083;28;20190;-80
2023/04/09 12:27:22;;;;;;;7.85;6.22;;;19.80;90.40;;;;;;5016491;28;20042;-79
2023/04/09 12:29:48;;;;;;;13.65;4.78;;;19.90;93.00;;;;;;5004323;28;20081;-78
2023/04/09 12:32:15;;;;;;;7.03;5.47;;;20.30;85.10;;;;;;5006537;28;20640;-79
2023/04/09 12:34:40;;;;;;;7.53;5.53;;;20.40;90.80;;;;;;4997134;28;20037;-79
2023/04/09 12:37:09;;;;;;;6.43;4.80;;;20.50;81.40;;;;;;5002843;28;20040;-79